Time;durP1;ratioP1;P1;durP2;ratioP2;P2;SDS_P1;SDS_P2;PMS_P1;PMS_P2;Temp;Humidity;BMP_temperature;BMP_pressure;BME280_temperature;BME280_humidity;BME280_pressure;Samples;Min_cycle;Max_cycle;Signal;HPM_P1;HPM_P2
2022/03/15 00:00:27;;;;;;;9.40;6.53;;;5.20;99.90;;;;;;5052821;28;20454;-66
2022/03/15 00:02:54;;;;;;;8.60;7.37;;;5.20;99.90;;;;;;5052954;28;20527;-64
2022/03/15 00:05:21;;;;;;;8.83;7.10;;;5.30;99.90;;;;;;5052579;28;20443;-66
2022/03/15 00:07:49;;;;;;;13.90;7.97;;;5.30;99.90;;;;;;5052777;28;20448;-65
2022/03/15 00:10:18;;;;;;;11.50;7.60;;;5.20;99.90;;;;;;5052542;28;20489;-65
2022/03/15 00:12:45;;;;;;;8.63;6.40;;;5.20;99.90;;;;;;5052330;28;20486;-66
2022/03/15 00:15:13;;;;;;;7.27;6.57;;;5.20;99.90;;;;;;5052292;28;20471;-65
2022/03/15 00:17:44;;;;;;;9.10;6.63;;;5.20;99.90;;;;;;5052397;28;20454;-65
2022/03/15 00:20:14;;;;;;;8.97;6.70;;;5.20;99.90;;;;;;5052618;28;20490;-64
2022/03/15 00:22:41;;;;;;;11.57;7.80;;;5.30;99.90;;;;;;5052804;28;20471;-66
2022/03/15 00:25:11;;;;;;;8.93;6.47;;;5.30;99.90;;;;;;5051945;28;20447;-65
2022/03/15 00:27:38;;;;;;;10.87;7.17;;;5.30;99.90;;;;;;5052592;28;20452;-65
2022/03/15 00:30:07;;;;;;;9.60;6.73;;;5.30;99.90;;;;;;5052293;28;21112;-65
2022/03/15 00:32:35;;;;;;;8.33;6.47;;;5.30;99.90;;;;;;5052312;28;20470;-64
2022/03/15 00:35:05;;;;;;;9.53;7.00;;;5.30;99.90;;;;;;5051907;28;20451;-64
2022/03/15 00:37:32;;;;;;;8.33;7.50;;;5.20;99.90;;;;;;5052338;28;20448;-65
2022/03/15 00:39:59;;;;;;;8.83;7.07;;;5.10;99.90;;;;;;5052042;28;20444;-64
2022/03/15 00:42:26;;;;;;;12.50;7.47;;;5.10;99.90;;;;;;5052134;28;20522;-65
2022/03/15 00:44:53;;;;;;;9.60;7.40;;;5.10;99.90;;;;;;5051461;28;20448;-65
2022/03/15 00:47:19;;;;;;;11.33;7.53;;;5.00;99.90;;;;;;5051553;28;20455;-65
2022/03/15 00:49:46;;;;;;;11.00;7.47;;;5.00;99.90;;;;;;5051613;28;20486;-64
2022/03/15 00:52:14;;;;;;;8.60;7.50;;;5.00;99.90;;;;;;5051381;28;20555;-64
2022/03/15 00:54:41;;;;;;;11.43;7.73;;;5.00;99.90;;;;;;5051300;28;20540;-65
2022/03/15 00:57:08;;;;;;;11.67;8.47;;;5.00;99.90;;;;;;5051785;28;20817;-65
2022/03/15 00:59:35;;;;;;;11.13;8.60;;;4.90;99.90;;;;;;5051814;28;20459;-65
2022/03/15 01:02:02;;;;;;;11.07;7.47;;;4.90;99.90;;;;;;5051622;28;20496;-68
2022/03/15 01:04:29;;;;;;;10.47;7.03;;;4.90;99.90;;;;;;5051364;28;20448;-65
2022/03/15 01:06:55;;;;;;;16.70;8.63;;;4.90;99.90;;;;;;5051345;28;20950;-65
2022/03/15 01:09:24;;;;;;;9.50;7.17;;;5.00;99.90;;;;;;5052033;28;20444;-65
2022/03/15 01:11:51;;;;;;;8.30;6.90;;;5.00;99.90;;;;;;5051233;28;20487;-65
2022/03/15 01:14:18;;;;;;;11.53;7.00;;;5.00;99.90;;;;;;5051300;28;20934;-64
2022/03/15 01:16:46;;;;;;;7.50;6.33;;;5.00;99.90;;;;;;5051642;28;21326;-65
2022/03/15 01:19:13;;;;;;;8.40;6.40;;;5.10;99.90;;;;;;5051767;28;20836;-65
2022/03/15 01:21:40;;;;;;;7.27;6.27;;;5.00;99.90;;;;;;5051675;28;20487;-64
2022/03/15 01:24:08;;;;;;;9.90;7.23;;;5.00;99.90;;;;;;5051274;28;20483;-65
2022/03/15 01:26:37;;;;;;;12.10;7.47;;;5.00;99.90;;;;;;5051643;28;20547;-65
2022/03/15 01:29:04;;;;;;;9.50;7.13;;;5.10;99.90;;;;;;5051483;28;20475;-67
2022/03/15 01:31:31;;;;;;;10.40;7.70;;;5.10;99.90;;;;;;5051137;28;20491;-65
2022/03/15 01:33:59;;;;;;;9.87;7.13;;;5.10;99.90;;;;;;5050907;28;20985;-64
2022/03/15 01:36:26;;;;;;;9.70;7.13;;;5.10;99.90;;;;;;5050687;28;20979;-65
2022/03/15 01:38:53;;;;;;;9.90;7.43;;;5.00;99.90;;;;;;5050805;28;20447;-64
2022/03/15 01:41:21;;;;;;;11.03;7.70;;;5.10;99.90;;;;;;5050846;28;20439;-64
2022/03/15 01:43:49;;;;;;;8.27;7.30;;;5.10;99.90;;;;;;5050731;28;20444;-64
2022/03/15 01:46:16;;;;;;;9.43;6.93;;;5.10;99.90;;;;;;5050471;28;21230;-64
2022/03/15 01:48:44;;;;;;;9.73;7.30;;;5.20;99.90;;;;;;5053196;28;20455;-68
2022/03/15 01:51:14;;;;;;;9.17;7.37;;;5.20;99.90;;;;;;5054425;28;20484;-64
2022/03/15 01:53:41;;;;;;;12.93;7.30;;;5.10;99.90;;;;;;5054912;28;20463;-64
2022/03/15 01:56:08;;;;;;;9.87;7.17;;;5.10;99.90;;;;;;5054695;28;20468;-65
2022/03/15 01:58:35;;;;;;;8.13;6.73;;;5.00;99.90;;;;;;5052703;28;20576;-64
2022/03/15 02:01:03;;;;;;;9.03;7.17;;;5.10;99.90;;;;;;5052098;28;20452;-65
2022/03/15 02:03:32;;;;;;;9.50;7.67;;;5.00;99.90;;;;;;5051593;28;20486;-64
2022/03/15 02:06:01;;;;;;;9.00;7.60;;;5.00;99.90;;;;;;5050613;28;20448;-64
2022/03/15 02:08:28;;;;;;;9.47;6.70;;;5.00;99.90;;;;;;5051014;28;20867;-64
2022/03/15 02:10:55;;;;;;;9.10;6.67;;;5.10;99.90;;;;;;5050582;28;20484;-65
2022/03/15 02:13:22;;;;;;;10.57;7.07;;;5.10;99.90;;;;;;5050501;28;20463;-65
2022/03/15 02:15:49;;;;;;;11.50;7.80;;;5.10;99.90;;;;;;5050091;28;20995;-64
2022/03/15 02:18:19;;;;;;;7.93;6.97;;;5.10;99.90;;;;;;5050056;28;20456;-64
2022/03/15 02:20:47;;;;;;;10.77;8.10;;;5.00;99.90;;;;;;5050540;28;20945;-64
2022/03/15 02:23:14;;;;;;;8.40;7.43;;;5.00;99.90;;;;;;5050144;28;20941;-64
2022/03/15 02:25:42;;;;;;;7.80;6.77;;;5.00;99.90;;;;;;5050360;28;20458;-64
2022/03/15 02:28:09;;;;;;;9.70;7.77;;;5.10;99.90;;;;;;5050387;28;20448;-64
2022/03/15 02:30:35;;;;;;;7.77;6.97;;;5.10;99.90;;;;;;5050252;28;20496;-63
2022/03/15 02:33:02;;;;;;;10.57;7.73;;;5.10;99.90;;;;;;5050038;28;20479;-64
2022/03/15 02:35:29;;;;;;;12.00;7.97;;;4.90;99.90;;;;;;5049870;28;20444;-65
2022/03/15 02:37:57;;;;;;;11.87;7.47;;;4.80;99.90;;;;;;5049950;28;20483;-65
2022/03/15 02:40:24;;;;;;;10.03;7.23;;;4.80;99.90;;;;;;5049710;28;20444;-65
2022/03/15 02:42:51;;;;;;;10.53;7.83;;;4.90;99.90;;;;;;5049965;28;20482;-65
2022/03/15 02:45:19;;;;;;;11.03;7.17;;;4.90;99.90;;;;;;5049606;28;20460;-64
2022/03/15 02:47:48;;;;;;;9.40;7.60;;;5.00;99.90;;;;;;5049868;28;20447;-65
2022/03/15 02:50:15;;;;;;;7.80;7.00;;;5.00;99.90;;;;;;5052716;28;20452;-65
2022/03/15 02:52:42;;;;;;;9.57;7.77;;;4.90;99.90;;;;;;5053898;28;21014;-64
2022/03/15 02:55:10;;;;;;;8.60;7.40;;;4.90;99.90;;;;;;5053793;28;20464;-65
2022/03/15 02:57:37;;;;;;;9.40;8.20;;;4.80;99.90;;;;;;5053788;28;20466;-65
2022/03/15 03:00:05;;;;;;;9.80;8.80;;;4.90;99.90;;;;;;5053969;28;20971;-65
2022/03/15 03:02:33;;;;;;;13.40;8.30;;;4.90;99.90;;;;;;5054204;28;20952;-65
2022/03/15 03:05:00;;;;;;;10.63;8.43;;;5.00;99.90;;;;;;5053793;28;20443;-65
2022/03/15 03:07:27;;;;;;;9.03;8.03;;;5.00;99.90;;;;;;5054143;28;20451;-65
2022/03/15 03:09:53;;;;;;;8.90;7.80;;;5.10;99.90;;;;;;5054105;28;20960;-65
2022/03/15 03:12:24;;;;;;;9.70;7.40;;;5.20;99.90;;;;;;5054038;28;20483;-65
2022/03/15 03:14:52;;;;;;;9.97;7.83;;;5.10;99.90;;;;;;5053337;28;20962;-68
2022/03/15 03:17:19;;;;;;;12.37;8.20;;;5.10;99.90;;;;;;5053415;28;20459;-65
2022/03/15 03:19:46;;;;;;;9.27;7.30;;;5.20;99.90;;;;;;5053677;28;20941;-65
2022/03/15 03:22:13;;;;;;;11.13;9.57;;;5.20;99.90;;;;;;5053708;28;20471;-64
2022/03/15 03:24:39;;;;;;;15.60;10.77;;;5.10;99.90;;;;;;5053445;28;20501;-65
2022/03/15 03:27:07;;;;;;;22.47;15.17;;;5.20;99.90;;;;;;5053295;28;20452;-65
2022/03/15 03:29:35;;;;;;;21.73;13.70;;;5.20;99.90;;;;;;5053658;28;20569;-66
2022/03/15 03:32:02;;;;;;;15.43;10.80;;;5.10;99.90;;;;;;5053425;28;20491;-64
2022/03/15 03:34:29;;;;;;;14.23;10.63;;;5.10;99.90;;;;;;5053097;28;20444;-69
2022/03/15 03:36:56;;;;;;;25.90;10.23;;;5.10;99.90;;;;;;5053333;28;20535;-64
2022/03/15 03:39:23;;;;;;;12.33;9.07;;;5.20;99.90;;;;;;5053283;28;21146;-64
2022/03/15 03:41:50;;;;;;;13.10;8.90;;;5.10;99.90;;;;;;5053029;28;20463;-64
2022/03/15 03:44:17;;;;;;;11.27;9.33;;;5.10;99.90;;;;;;5053153;28;20447;-65
2022/03/15 03:46:45;;;;;;;9.17;8.30;;;5.10;99.90;;;;;;5053137;28;20483;-64
2022/03/15 03:49:12;;;;;;;11.63;8.33;;;5.10;99.90;;;;;;5053173;28;20555;-64
2022/03/15 03:51:40;;;;;;;10.50;8.90;;;5.10;99.90;;;;;;5052741;28;20562;-65
2022/03/15 03:54:07;;;;;;;13.17;9.17;;;5.10;99.90;;;;;;5052585;28;20972;-67
2022/03/15 03:56:34;;;;;;;9.50;8.60;;;5.10;99.90;;;;;;5052595;28;20447;-65
2022/03/15 03:59:01;;;;;;;9.00;8.07;;;5.10;99.90;;;;;;5053113;28;20459;-64
2022/03/15 04:01:28;;;;;;;10.30;7.90;;;5.20;99.90;;;;;;5052428;28;20444;-65
2022/03/15 04:03:59;;;;;;;10.30;7.87;;;5.20;99.90;;;;;;5052797;28;20448;-65
2022/03/15 04:06:26;;;;;;;10.27;9.17;;;5.30;99.90;;;;;;5052586;28;20451;-65
2022/03/15 04:08:56;;;;;;;10.27;8.30;;;5.20;99.90;;;;;;5052724;28;20526;-65
2022/03/15 04:11:23;;;;;;;12.37;7.67;;;5.30;99.90;;;;;;5052489;28;20484;-66
2022/03/15 04:13:50;;;;;;;10.90;9.00;;;5.20;99.90;;;;;;5052542;28;20989;-65
2022/03/15 04:16:16;;;;;;;12.30;10.00;;;5.20;99.90;;;;;;5052250;28;20953;-65
2022/03/15 04:18:43;;;;;;;9.83;8.47;;;5.10;99.90;;;;;;5052526;28;20450;-65
2022/03/15 04:21:12;;;;;;;11.20;9.00;;;5.20;99.90;;;;;;5052295;28;20440;-65
2022/03/15 04:23:38;;;;;;;10.67;8.80;;;5.20;99.90;;;;;;5052243;28;20458;-64
2022/03/15 04:26:06;;;;;;;10.17;7.03;;;5.20;99.90;;;;;;5052227;28;20448;-65
2022/03/15 04:28:33;;;;;;;10.10;7.63;;;5.10;99.90;;;;;;5052225;28;20432;-64
2022/03/15 04:30:59;;;;;;;9.57;8.00;;;5.00;99.90;;;;;;5052324;28;21039;-65
2022/03/15 04:33:26;;;;;;;10.10;8.33;;;5.00;99.90;;;;;;5052028;28;20973;-67
2022/03/15 04:35:53;;;;;;;9.57;7.70;;;5.10;99.90;;;;;;5051536;28;20455;-65
2022/03/15 04:38:21;;;;;;;10.27;7.90;;;5.10;99.90;;;;;;5052705;28;20448;-65
2022/03/15 04:40:49;;;;;;;9.33;7.60;;;5.00;99.90;;;;;;5052420;28;20827;-65
2022/03/15 04:43:15;;;;;;;11.00;7.97;;;5.00;99.90;;;;;;5051160;28;20491;-65
2022/03/15 04:45:42;;;;;;;8.83;7.93;;;5.00;99.90;;;;;;5051017;28;20452;-65
2022/03/15 04:48:09;;;;;;;11.83;9.60;;;5.00;99.90;;;;;;5051725;28;20809;-64
2022/03/15 04:50:37;;;;;;;9.20;8.20;;;5.00;99.90;;;;;;5052153;28;20455;-65
2022/03/15 04:53:04;;;;;;;12.07;8.80;;;5.00;99.90;;;;;;5052131;28;20464;-64
2022/03/15 04:55:32;;;;;;;8.63;7.73;;;5.10;99.90;;;;;;5052058;28;20559;-65
2022/03/15 04:57:58;;;;;;;10.10;7.77;;;5.10;99.90;;;;;;5051860;28;20950;-65
2022/03/15 05:00:25;;;;;;;8.37;7.17;;;5.10;99.90;;;;;;5051910;28;20484;-63
2022/03/15 05:02:52;;;;;;;9.37;7.93;;;5.00;99.90;;;;;;5051789;28;20824;-64
2022/03/15 05:05:19;;;;;;;10.83;8.37;;;5.00;99.90;;;;;;5051756;28;20508;-64
2022/03/15 05:07:46;;;;;;;10.60;8.17;;;4.90;99.90;;;;;;5051760;28;20458;-64
2022/03/15 05:13:00;;;;;;;10.87;7.07;;;5.00;99.90;;;;;;5050306;28;20538;-64
2022/03/15 05:15:28;;;;;;;8.37;7.50;;;5.00;99.90;;;;;;5051258;28;20882;-64
2022/03/15 05:17:55;;;;;;;11.17;8.63;;;5.00;99.90;;;;;;5051425;28;20448;-64
2022/03/15 05:20:22;;;;;;;10.63;9.00;;;5.00;99.90;;;;;;5051044;28;20829;-65
2022/03/15 05:22:48;;;;;;;10.77;7.90;;;5.10;99.90;;;;;;5050923;28;20909;-63
2022/03/15 05:25:15;;;;;;;15.20;8.63;;;5.10;99.90;;;;;;5050769;28;20455;-63
2022/03/15 05:27:43;;;;;;;9.63;7.60;;;5.10;99.90;;;;;;5051110;28;20451;-63
2022/03/15 05:30:12;;;;;;;10.40;7.70;;;5.10;99.90;;;;;;5051203;28;20452;-65
2022/03/15 05:32:39;;;;;;;11.53;7.43;;;5.00;99.90;;;;;;5050750;28;21013;-65
2022/03/15 05:35:07;;;;;;;8.40;7.50;;;5.00;99.90;;;;;;5050683;28;21157;-65
2022/03/15 05:37:34;;;;;;;8.50;7.70;;;5.00;99.90;;;;;;5050972;28;20542;-64
2022/03/15 05:40:01;;;;;;;10.07;8.40;;;4.90;99.90;;;;;;5051317;28;20455;-67
2022/03/15 05:42:28;;;;;;;9.60;7.63;;;5.00;99.90;;;;;;5050711;28;21000;-67
2022/03/15 05:44:55;;;;;;;15.97;7.83;;;5.00;99.90;;;;;;5050594;28;20467;-65
2022/03/15 05:47:23;;;;;;;9.57;7.00;;;5.00;99.90;;;;;;5050834;28;20451;-64
2022/03/15 05:49:50;;;;;;;13.17;7.90;;;5.10;99.90;;;;;;5050711;28;20448;-66
2022/03/15 05:52:17;;;;;;;10.20;7.57;;;5.10;99.90;;;;;;5050410;28;20499;-64
2022/03/15 05:54:45;;;;;;;10.20;8.33;;;5.20;99.90;;;;;;5051099;28;20464;-63
2022/03/15 05:57:12;;;;;;;8.87;7.97;;;5.10;99.90;;;;;;5053929;28;20535;-64
2022/03/15 05:59:39;;;;;;;12.40;8.17;;;5.20;99.90;;;;;;5049813;28;20484;-64
2022/03/15 06:02:07;;;;;;;10.80;7.80;;;5.10;99.90;;;;;;5047148;28;20511;-64
2022/03/15 06:04:35;;;;;;;10.40;7.90;;;5.10;99.90;;;;;;5047976;28;20447;-65
2022/03/15 06:07:02;;;;;;;11.43;8.30;;;5.20;99.90;;;;;;5048206;28;20440;-64
2022/03/15 06:09:29;;;;;;;11.00;8.80;;;5.20;99.90;;;;;;5046669;28;20454;-63
2022/03/15 06:11:57;;;;;;;9.93;8.97;;;5.30;99.90;;;;;;5047248;28;20530;-63
2022/03/15 06:14:23;;;;;;;10.43;8.23;;;5.20;99.90;;;;;;5047762;28;20518;-67
2022/03/15 06:16:50;;;;;;;12.17;9.33;;;5.30;99.90;;;;;;5047200;28;20979;-63
2022/03/15 06:19:18;;;;;;;8.97;8.13;;;5.30;99.90;;;;;;5045127;28;20436;-64
2022/03/15 06:21:46;;;;;;;10.30;8.17;;;5.40;99.90;;;;;;5053675;28;20495;-64
2022/03/15 06:24:13;;;;;;;10.33;8.27;;;5.50;99.90;;;;;;5053219;28;20448;-64
2022/03/15 06:26:43;;;;;;;9.90;8.03;;;5.50;99.90;;;;;;5048919;28;20440;-63
2022/03/15 06:29:11;;;;;;;12.43;8.10;;;5.60;99.90;;;;;;5048958;28;20456;-64
2022/03/15 06:31:38;;;;;;;12.80;8.67;;;5.60;99.90;;;;;;5048412;28;20479;-64
2022/03/15 06:34:06;;;;;;;11.83;8.17;;;5.70;99.90;;;;;;5048041;28;20462;-64
2022/03/15 06:36:34;;;;;;;9.90;7.83;;;5.80;99.90;;;;;;5048655;28;20463;-64
2022/03/15 06:39:02;;;;;;;10.83;8.00;;;5.90;99.90;;;;;;5049368;28;20772;-64
2022/03/15 06:41:30;;;;;;;9.77;7.57;;;6.00;99.90;;;;;;5049551;28;20484;-64
2022/03/15 06:43:56;;;;;;;7.40;6.20;;;6.10;99.90;;;;;;5049691;28;20542;-64
2022/03/15 06:46:23;;;;;;;9.40;5.93;;;6.30;99.90;;;;;;5049606;28;20552;-64
2022/03/15 06:48:50;;;;;;;11.23;7.03;;;6.40;99.90;;;;;;5049593;28;20990;-64
2022/03/15 06:51:17;;;;;;;10.17;6.67;;;6.50;99.90;;;;;;5049666;28;20538;-64
2022/03/15 06:53:44;;;;;;;10.27;6.90;;;6.60;99.90;;;;;;5049652;28;20484;-64
2022/03/15 06:56:12;;;;;;;9.80;6.47;;;6.70;99.90;;;;;;5049513;28;20451;-64
2022/03/15 06:58:39;;;;;;;7.60;6.70;;;6.70;99.90;;;;;;5049594;28;20448;-65
2022/03/15 07:01:06;;;;;;;10.37;6.97;;;6.80;99.90;;;;;;5049315;28;20823;-65
2022/03/15 07:03:34;;;;;;;10.23;6.27;;;7.00;99.90;;;;;;5049117;28;20556;-63
2022/03/15 07:06:00;;;;;;;9.57;7.10;;;7.10;99.90;;;;;;5048990;28;20657;-65
2022/03/15 07:08:27;;;;;;;10.47;6.50;;;7.10;99.90;;;;;;5049334;28;20448;-64
2022/03/15 07:10:54;;;;;;;9.73;6.40;;;7.10;99.90;;;;;;5049426;28;20447;-65
2022/03/15 07:13:22;;;;;;;9.53;6.53;;;7.10;99.90;;;;;;5048946;28;20574;-63
2022/03/15 07:15:49;;;;;;;8.30;6.80;;;7.10;99.90;;;;;;5048941;28;20447;-65
2022/03/15 07:18:18;;;;;;;8.07;6.70;;;7.20;99.90;;;;;;5049112;28;20479;-65
2022/03/15 07:20:45;;;;;;;13.37;6.77;;;7.40;99.90;;;;;;5049195;28;20539;-65
2022/03/15 07:23:12;;;;;;;10.30;6.73;;;7.60;99.90;;;;;;5049182;28;20482;-65
2022/03/15 07:25:39;;;;;;;16.03;7.40;;;7.70;99.90;;;;;;5048778;28;20452;-65
2022/03/15 07:28:05;;;;;;;12.67;7.87;;;7.90;99.90;;;;;;5049059;28;20440;-64
2022/03/15 07:30:34;;;;;;;11.17;6.80;;;8.10;99.90;;;;;;5049180;28;20447;-65
2022/03/15 07:33:01;;;;;;;9.57;7.10;;;8.10;99.90;;;;;;5048772;28;21084;-65
2022/03/15 07:35:28;;;;;;;10.93;7.57;;;8.20;99.90;;;;;;5050107;28;20872;-64
2022/03/15 07:37:56;;;;;;;13.03;8.17;;;8.10;99.90;;;;;;5052827;28;20455;-64
2022/03/15 07:40:24;;;;;;;10.17;8.37;;;8.20;99.90;;;;;;5053075;28;20466;-65
2022/03/15 07:42:52;;;;;;;13.13;9.47;;;8.40;99.90;;;;;;5052673;28;20842;-65
2022/03/15 07:45:19;;;;;;;14.37;8.50;;;8.60;99.90;;;;;;5052183;28;20455;-65
2022/03/15 07:47:48;;;;;;;9.57;8.13;;;8.80;99.90;;;;;;5052503;28;20955;-64
2022/03/15 07:50:15;;;;;;;13.03;9.33;;;8.80;99.90;;;;;;5052651;28;20490;-65
2022/03/15 07:52:42;;;;;;;11.37;9.60;;;8.90;99.90;;;;;;5052350;28;20483;-64
2022/03/15 07:55:10;;;;;;;9.60;8.60;;;9.00;99.90;;;;;;5053024;28;20498;-65
2022/03/15 07:57:36;;;;;;;10.57;7.77;;;9.10;99.90;;;;;;5057680;28;20440;-65
2022/03/15 08:00:04;;;;;;;10.50;7.30;;;9.20;99.90;;;;;;5057261;28;20483;-65
2022/03/15 08:02:31;;;;;;;7.83;6.77;;;9.40;99.90;;;;;;5056897;28;20470;-65
2022/03/15 08:04:59;;;;;;;10.43;7.30;;;9.40;99.90;;;;;;5056587;28;20443;-65
2022/03/15 08:07:26;;;;;;;9.93;7.63;;;9.50;99.90;;;;;;5052688;28;20452;-65
2022/03/15 08:09:54;;;;;;;7.73;6.40;;;9.80;99.90;;;;;;5052762;28;20498;-64
2022/03/15 08:12:21;;;;;;;12.47;6.80;;;10.00;99.90;;;;;;5052148;28;20487;-64
2022/03/15 08:14:48;;;;;;;11.53;7.13;;;10.10;99.90;;;;;;5051920;28;20450;-65
2022/03/15 08:17:15;;;;;;;9.80;7.33;;;10.30;99.90;;;;;;5052114;28;20452;-65
2022/03/15 08:19:42;;;;;;;9.37;6.77;;;10.50;99.90;;;;;;5052345;28;20444;-65
2022/03/15 08:22:10;;;;;;;10.40;6.80;;;10.70;99.90;;;;;;5051909;28;20464;-63
2022/03/15 08:24:37;;;;;;;8.67;6.83;;;10.80;99.90;;;;;;5051680;28;20452;-63
2022/03/15 08:27:04;;;;;;;10.13;6.87;;;10.90;99.90;;;;;;5051834;28;20487;-65
2022/03/15 08:29:31;;;;;;;9.67;6.47;;;10.80;99.90;;;;;;5052148;28;20459;-65
2022/03/15 08:31:58;;;;;;;12.53;6.30;;;10.90;99.90;;;;;;5051724;28;20486;-65
2022/03/15 08:34:25;;;;;;;8.50;6.50;;;11.00;99.90;;;;;;5051804;28;20964;-63
2022/03/15 08:36:53;;;;;;;8.73;5.53;;;11.10;99.90;;;;;;5052021;28;20531;-64
2022/03/15 08:39:23;;;;;;;10.80;6.47;;;11.30;99.90;;;;;;5051986;28;20471;-65
2022/03/15 08:41:51;;;;;;;9.17;6.33;;;11.50;99.90;;;;;;5051769;28;20467;-65
2022/03/15 08:44:18;;;;;;;8.80;6.20;;;11.80;99.90;;;;;;5051724;28;20794;-65
2022/03/15 08:46:47;;;;;;;7.30;5.93;;;12.00;99.90;;;;;;5050492;28;20444;-66
2022/03/15 08:49:15;;;;;;;9.60;6.43;;;12.20;99.90;;;;;;5051514;28;20467;-65
2022/03/15 08:51:42;;;;;;;11.33;5.87;;;12.20;99.90;;;;;;5051414;28;20475;-65
2022/03/15 08:54:09;;;;;;;8.80;6.60;;;12.30;99.90;;;;;;5050810;28;20506;-65
2022/03/15 08:56:41;;;;;;;6.57;5.57;;;12.40;99.90;;;;;;5051643;28;20482;-64
2022/03/15 08:59:09;;;;;;;7.50;5.60;;;12.10;99.90;;;;;;5051242;28;20444;-65
2022/03/15 09:01:36;;;;;;;8.70;6.53;;;12.30;99.90;;;;;;5051098;28;21016;-65
2022/03/15 09:04:03;;;;;;;7.43;5.87;;;12.50;99.90;;;;;;5050955;28;20826;-65
2022/03/15 09:06:30;;;;;;;8.43;6.10;;;12.50;99.90;;;;;;5051023;28;20535;-65
2022/03/15 09:08:59;;;;;;;9.87;7.17;;;12.50;99.90;;;;;;5051170;28;20452;-65
2022/03/15 09:11:26;;;;;;;11.20;7.00;;;12.40;99.90;;;;;;5051067;28;20873;-64
2022/03/15 09:13:55;;;;;;;7.30;5.40;;;12.20;99.90;;;;;;5050972;28;20563;-65
2022/03/15 09:16:22;;;;;;;9.37;6.33;;;12.10;99.90;;;;;;5050648;28;20926;-65
2022/03/15 09:18:49;;;;;;;7.83;6.07;;;12.10;99.90;;;;;;5051201;28;20452;-64
2022/03/15 09:21:18;;;;;;;11.30;6.73;;;12.10;99.90;;;;;;5050835;28;20458;-65
2022/03/15 09:23:45;;;;;;;8.73;5.90;;;12.10;99.90;;;;;;5051080;28;20502;-64
2022/03/15 09:26:12;;;;;;;12.03;6.20;;;12.10;99.90;;;;;;5050608;28;20456;-65
2022/03/15 09:28:41;;;;;;;12.03;7.90;;;12.20;99.90;;;;;;5051129;28;20872;-64
2022/03/15 09:31:09;;;;;;;9.10;6.40;;;12.00;99.90;;;;;;5050757;28;20984;-64
2022/03/15 09:33:36;;;;;;;13.77;7.93;;;11.70;99.90;;;;;;5050421;28;21008;-63
2022/03/15 09:36:04;;;;;;;9.57;6.60;;;11.70;99.90;;;;;;5050473;28;20795;-64
2022/03/15 09:38:32;;;;;;;11.73;6.70;;;11.80;99.90;;;;;;5050634;28;20866;-65
2022/03/15 09:41:03;;;;;;;10.57;6.50;;;12.00;99.90;;;;;;5050516;28;20440;-66
2022/03/15 09:43:36;;;;;;;10.80;7.17;;;12.00;99.90;;;;;;5050628;28;20467;-65
2022/03/15 09:46:04;;;;;;;9.80;8.00;;;12.00;99.90;;;;;;5050047;28;20448;-65
2022/03/15 09:48:34;;;;;;;12.80;7.87;;;12.10;99.90;;;;;;5050472;28;20452;-65
2022/03/15 09:51:04;;;;;;;12.73;6.80;;;12.10;99.90;;;;;;5050164;28;20981;-65
2022/03/15 09:53:34;;;;;;;8.53;6.50;;;12.20;99.90;;;;;;5050240;28;20491;-64
2022/03/15 09:56:01;;;;;;;10.27;6.43;;;12.20;99.90;;;;;;5049996;28;20464;-65
2022/03/15 09:58:28;;;;;;;11.50;7.63;;;12.20;99.90;;;;;;5049718;28;20444;-65
2022/03/15 10:00:57;;;;;;;12.00;7.90;;;12.20;99.90;;;;;;5049940;28;20448;-65
2022/03/15 10:03:24;;;;;;;10.17;7.00;;;12.20;99.90;;;;;;5049896;28;20460;-64
2022/03/15 10:05:52;;;;;;;16.27;7.57;;;12.20;99.90;;;;;;5050048;28;20534;-65
2022/03/15 10:08:21;;;;;;;10.67;8.10;;;12.00;99.90;;;;;;5049968;28;20444;-66
2022/03/15 10:10:50;;;;;;;12.23;8.77;;;11.90;99.90;;;;;;5050095;28;20456;-65
2022/03/15 10:13:17;;;;;;;9.73;6.80;;;11.80;99.90;;;;;;5049673;28;20852;-65
2022/03/15 10:15:51;;;;;;;11.67;7.87;;;11.90;99.90;;;;;;5049763;28;20795;-64
2022/03/15 10:18:19;;;;;;;8.30;6.53;;;12.00;99.90;;;;;;5050102;28;20443;-65
2022/03/15 10:20:47;;;;;;;10.53;7.80;;;12.20;99.90;;;;;;5050093;28;21034;-65
2022/03/15 10:23:16;;;;;;;8.57;6.73;;;12.30;99.90;;;;;;5050001;28;20888;-65
2022/03/15 10:25:47;;;;;;;12.63;7.53;;;12.40;99.90;;;;;;5050147;28;20468;-65
2022/03/15 10:28:15;;;;;;;10.40;7.30;;;12.60;99.90;;;;;;5050498;28;20450;-64
2022/03/15 10:30:43;;;;;;;13.77;8.70;;;12.70;99.90;;;;;;5050465;28;20522;-65
2022/03/15 10:33:10;;;;;;;14.20;8.20;;;12.60;99.90;;;;;;5049914;28;20483;-64
2022/03/15 10:35:39;;;;;;;10.37;7.20;;;12.60;99.90;;;;;;5049579;28;20444;-64
2022/03/15 10:38:07;;;;;;;8.40;6.53;;;12.50;99.90;;;;;;5049595;28;20506;-65
2022/03/15 10:40:38;;;;;;;9.20;6.57;;;12.40;99.90;;;;;;5049527;28;20942;-65
2022/03/15 10:43:10;;;;;;;13.07;6.90;;;12.30;99.90;;;;;;5049811;28;20543;-65
2022/03/15 10:45:41;;;;;;;9.10;7.20;;;12.40;99.90;;;;;;5049204;28;21114;-64
2022/03/15 10:48:16;;;;;;;10.60;7.67;;;12.30;99.90;;;;;;5049526;28;20455;-65
2022/03/15 10:50:55;;;;;;;12.40;7.33;;;12.10;99.90;;;;;;5049409;28;20447;-65
2022/03/15 10:53:27;;;;;;;10.73;8.07;;;11.70;99.90;;;;;;5049475;28;21058;-65
2022/03/15 10:58:49;;;;;;;9.57;7.00;;;11.50;99.90;;;;;;5086993;28;20579;-64
2022/03/15 11:01:20;;;;;;;10.30;7.53;;;11.40;99.90;;;;;;5087175;28;20456;-64
2022/03/15 11:03:54;;;;;;;10.83;7.43;;;11.30;99.90;;;;;;5086980;28;20438;-64
2022/03/15 11:06:30;;;;;;;9.97;7.37;;;11.20;99.90;;;;;;5086953;28;20442;-67
2022/03/15 11:08:57;;;;;;;12.40;8.53;;;10.90;99.90;;;;;;5086938;28;20967;-65
2022/03/15 11:11:25;;;;;;;9.37;7.37;;;10.90;99.90;;;;;;5086682;28;20537;-65
2022/03/15 11:14:02;;;;;;;12.63;8.77;;;10.80;99.90;;;;;;5086738;28;20485;-64
2022/03/15 11:16:32;;;;;;;10.17;7.37;;;10.70;99.90;;;;;;5086792;28;20450;-64
2022/03/15 11:19:02;;;;;;;10.33;8.63;;;10.80;99.90;;;;;;5086803;28;20469;-64
2022/03/15 11:21:33;;;;;;;11.33;9.20;;;10.90;99.90;;;;;;5086760;28;20466;-65
2022/03/15 11:24:01;;;;;;;10.90;8.10;;;11.00;99.90;;;;;;5086727;28;20476;-65
2022/03/15 11:26:33;;;;;;;12.70;8.73;;;11.00;99.90;;;;;;5086891;28;20457;-64
2022/03/15 11:29:03;;;;;;;12.97;10.90;;;11.10;99.90;;;;;;5086958;28;20447;-65
2022/03/15 11:31:31;;;;;;;10.23;8.80;;;11.00;99.90;;;;;;5086925;28;20450;-65
2022/03/15 11:33:59;;;;;;;11.30;9.10;;;11.10;99.90;;;;;;5086656;28;20446;-65
2022/03/15 11:36:26;;;;;;;12.80;9.47;;;11.10;99.90;;;;;;5086247;28;20450;-64
2022/03/15 11:38:54;;;;;;;9.23;7.70;;;11.00;99.90;;;;;;5086537;28;20597;-67
2022/03/15 11:41:22;;;;;;;12.03;8.33;;;11.00;99.90;;;;;;5086520;28;20533;-65
2022/03/15 11:44:00;;;;;;;11.60;8.67;;;11.00;99.90;;;;;;5086167;28;20807;-64
2022/03/15 11:46:34;;;;;;;10.17;8.87;;;11.00;99.90;;;;;;5086223;28;20442;-65
2022/03/15 11:49:14;;;;;;;9.87;8.83;;;11.00;99.90;;;;;;5086204;28;20591;-65
2022/03/15 11:51:50;;;;;;;11.47;8.20;;;11.00;99.90;;;;;;5086175;28;20886;-65
2022/03/15 11:54:27;;;;;;;11.07;9.00;;;10.80;99.90;;;;;;5085849;28;20446;-65
2022/03/15 11:56:57;;;;;;;12.73;8.90;;;10.70;99.90;;;;;;5086160;28;20460;-65
2022/03/15 11:59:24;;;;;;;12.67;11.47;;;10.80;99.90;;;;;;5086071;28;20453;-65
2022/03/15 12:01:55;;;;;;;12.50;8.33;;;10.80;99.90;;;;;;5086175;28;20549;-65
2022/03/15 12:04:24;;;;;;;13.07;8.07;;;10.80;99.90;;;;;;5085829;28;20511;-64
2022/03/15 12:06:54;;;;;;;9.50;7.47;;;11.00;99.90;;;;;;5086025;28;20465;-64
2022/03/15 12:09:23;;;;;;;10.23;7.50;;;11.10;99.90;;;;;;5076844;28;20462;-64
2022/03/15 12:12:01;;;;;;;8.33;6.90;;;11.20;99.90;;;;;;5072335;28;20816;-65
2022/03/15 12:14:38;;;;;;;9.00;6.97;;;11.20;99.90;;;;;;5072576;28;20528;-65
2022/03/15 12:17:07;;;;;;;11.67;6.67;;;11.20;99.90;;;;;;5072447;28;20995;-65
2022/03/15 12:19:44;;;;;;;10.03;6.23;;;11.30;99.90;;;;;;5072661;28;20454;-65
2022/03/15 12:22:23;;;;;;;8.07;7.10;;;11.50;99.90;;;;;;5072693;28;20495;-64
2022/03/15 12:25:01;;;;;;;9.60;6.40;;;11.50;99.90;;;;;;5072148;28;20447;-64
2022/03/15 12:27:28;;;;;;;7.77;6.50;;;11.30;99.90;;;;;;5072441;28;20478;-64
2022/03/15 12:29:56;;;;;;;8.87;6.13;;;11.30;99.90;;;;;;5072028;28;20530;-65
2022/03/15 12:32:25;;;;;;;9.70;6.90;;;11.30;99.90;;;;;;5072116;28;20558;-65
2022/03/15 12:34:55;;;;;;;9.70;7.10;;;11.20;99.90;;;;;;5071647;28;20526;-65
2022/03/15 12:37:29;;;;;;;11.00;7.80;;;11.00;99.90;;;;;;5072126;28;20518;-64
2022/03/15 12:39:57;;;;;;;10.27;7.73;;;10.80;99.90;;;;;;5072167;28;20553;-65
2022/03/15 12:42:25;;;;;;;13.33;7.90;;;10.60;99.90;;;;;;5071744;28;20981;-65
2022/03/15 12:44:54;;;;;;;10.10;8.50;;;10.40;99.90;;;;;;5071610;28;20443;-64
2022/03/15 12:47:23;;;;;;;13.17;8.57;;;10.40;99.90;;;;;;5072128;28;20948;-65
2022/03/15 12:50:17;;;;;;;11.73;8.07;;;10.40;99.90;;;;;;5072584;28;20461;-65
2022/03/15 12:52:46;;;;;;;8.93;7.10;;;10.30;99.90;;;;;;5072061;28;20467;-64
2022/03/15 12:55:20;;;;;;;13.50;8.73;;;10.30;99.90;;;;;;5071468;28;21112;-65
2022/03/15 12:57:48;;;;;;;13.60;8.40;;;10.20;99.90;;;;;;5071468;28;21022;-65